sensor_id;sensor_type;location;lat;lon;timestamp;temperature;humidity
25200;DHT22;33094;48.782;9.162;2022-08-24T00:01:05;20.30;91.10
25200;DHT22;33094;48.782;9.162;2022-08-24T00:08:23;20.20;91.40
25200;DHT22;33094;48.782;9.162;2022-08-24T00:10:49;20.00;91.60
25200;DHT22;33094;48.782;9.162;2022-08-24T00:15:41;20.00;91.60
25200;DHT22;33094;48.782;9.162;2022-08-24T00:22:59;20.00;91.70
25200;DHT22;33094;48.782;9.162;2022-08-24T00:27:50;19.90;92.00
25200;DHT22;33094;48.782;9.162;2022-08-24T00:37:34;19.80;92.10
25200;DHT22;33094;48.782;9.162;2022-08-24T00:42:25;19.90;92.10
25200;DHT22;33094;48.782;9.162;2022-08-24T00:44:51;19.80;92.10
25200;DHT22;33094;48.782;9.162;2022-08-24T00:54:36;19.70;92.40
25200;DHT22;33094;48.782;9.162;2022-08-24T01:01:54;19.50;92.80
25200;DHT22;33094;48.782;9.162;2022-08-24T01:04:22;19.50;92.70
25200;DHT22;33094;48.782;9.162;2022-08-24T01:09:19;19.40;93.20
25200;DHT22;33094;48.782;9.162;2022-08-24T01:11:44;19.30;93.40
25200;DHT22;33094;48.782;9.162;2022-08-24T01:16:36;19.30;93.60
25200;DHT22;33094;48.782;9.162;2022-08-24T01:21:57;19.20;93.90
25200;DHT22;33094;48.782;9.162;2022-08-24T01:24:26;19.20;94.00
25200;DHT22;33094;48.782;9.162;2022-08-24T01:34:10;19.00;94.60
25200;DHT22;33094;48.782;9.162;2022-08-24T01:39:05;19.00;94.70
25200;DHT22;33094;48.782;9.162;2022-08-24T01:46:24;18.80;95.00
25200;DHT22;33094;48.782;9.162;2022-08-24T01:51:16;18.80;95.00
25200;DHT22;33094;48.782;9.162;2022-08-24T02:10:42;18.70;95.50
25200;DHT22;33094;48.782;9.162;2022-08-24T02:20:28;18.60;95.50
25200;DHT22;33094;48.782;9.162;2022-08-24T02:25:21;18.70;95.30
25200;DHT22;33094;48.782;9.162;2022-08-24T02:27:48;18.60;95.30
25200;DHT22;33094;48.782;9.162;2022-08-24T02:30:13;18.30;96.10
25200;DHT22;33094;48.782;9.162;2022-08-24T02:39:57;18.40;95.30
25200;DHT22;33094;48.782;9.162;2022-08-24T02:42:24;18.20;94.90
25200;DHT22;33094;48.782;9.162;2022-08-24T03:01:51;18.20;94.80
25200;DHT22;33094;48.782;9.162;2022-08-24T03:04:17;18.30;95.00
25200;DHT22;33094;48.782;9.162;2022-08-24T03:06:43;18.30;95.00
25200;DHT22;33094;48.782;9.162;2022-08-24T03:09:09;18.20;95.20
25200;DHT22;33094;48.782;9.162;2022-08-24T03:21:18;18.00;96.00
25200;DHT22;33094;48.782;9.162;2022-08-24T03:23:43;17.90;95.70
25200;DHT22;33094;48.782;9.162;2022-08-24T03:26:09;18.00;95.80
25200;DHT22;33094;48.782;9.162;2022-08-24T03:35:52;18.00;96.10
25200;DHT22;33094;48.782;9.162;2022-08-24T03:45:57;17.90;96.20
25200;DHT22;33094;48.782;9.162;2022-08-24T03:53:14;17.70;95.60
25200;DHT22;33094;48.782;9.162;2022-08-24T04:00:31;17.70;95.50
25200;DHT22;33094;48.782;9.162;2022-08-24T04:02:57;17.70;95.50
25200;DHT22;33094;48.782;9.162;2022-08-24T04:19:58;17.50;95.80
25200;DHT22;33094;48.782;9.162;2022-08-24T04:22:24;17.50;96.00
25200;DHT22;33094;48.782;9.162;2022-08-24T04:24:50;17.40;96.00
25200;DHT22;33094;48.782;9.162;2022-08-24T04:49:09;17.60;95.90
25200;DHT22;33094;48.782;9.162;2022-08-24T04:56:26;17.90;95.70
25200;DHT22;33094;48.782;9.162;2022-08-24T05:13:30;18.00;95.80
25200;DHT22;33094;48.782;9.162;2022-08-24T05:15:55;18.10;95.90
25200;DHT22;33094;48.782;9.162;2022-08-24T05:25:39;18.00;95.60
25200;DHT22;33094;48.782;9.162;2022-08-24T05:28:05;18.00;95.70
25200;DHT22;33094;48.782;9.162;2022-08-24T05:35:22;18.20;95.70
25200;DHT22;33094;48.782;9.162;2022-08-24T06:09:28;18.80;95.20
25200;DHT22;33094;48.782;9.162;2022-08-24T06:21:38;19.10;95.20
25200;DHT22;33094;48.782;9.162;2022-08-24T06:58:26;19.90;94.30
25200;DHT22;33094;48.782;9.162;2022-08-24T07:10:38;20.20;93.90
25200;DHT22;33094;48.782;9.162;2022-08-24T07:25:15;17.10;92.90
25200;DHT22;33094;48.782;9.162;2022-08-24T07:27:40;20.70;93.90
25200;DHT22;33094;48.782;9.162;2022-08-24T07:30:06;20.80;93.90
25200;DHT22;33094;48.782;9.162;2022-08-24T07:32:35;20.90;93.80
25200;DHT22;33094;48.782;9.162;2022-08-24T07:35:01;21.00;93.80
25200;DHT22;33094;48.782;9.162;2022-08-24T07:37:26;21.10;93.70
25200;DHT22;33094;48.782;9.162;2022-08-24T07:39:52;25.40;94.90
25200;DHT22;33094;48.782;9.162;2022-08-24T07:42:18;21.20;93.60
25200;DHT22;33094;48.782;9.162;2022-08-24T07:44:44;21.40;93.40
25200;DHT22;33094;48.782;9.162;2022-08-24T07:47:10;23.80;94.00
25200;DHT22;33094;48.782;9.162;2022-08-24T07:49:35;21.60;93.10
25200;DHT22;33094;48.782;9.162;2022-08-24T07:52:01;21.70;92.90
25200;DHT22;33094;48.782;9.162;2022-08-24T07:54:27;21.90;92.60
25200;DHT22;33094;48.782;9.162;2022-08-24T07:56:53;22.00;92.40
25200;DHT22;33094;48.782;9.162;2022-08-24T07:59:18;22.20;91.80
25200;DHT22;33094;48.782;9.162;2022-08-24T08:01:44;22.50;91.20
25200;DHT22;33094;48.782;9.162;2022-08-24T08:04:10;22.70;91.00
25200;DHT22;33094;48.782;9.162;2022-08-24T08:06:35;23.00;90.20
25200;DHT22;33094;48.782;9.162;2022-08-24T08:09:02;23.00;89.80
25200;DHT22;33094;48.782;9.162;2022-08-24T08:11:29;23.00;87.10
25200;DHT22;33094;48.782;9.162;2022-08-24T08:13:55;22.90;88.30
25200;DHT22;33094;48.782;9.162;2022-08-24T08:16:20;23.20;86.90
25200;DHT22;33094;48.782;9.162;2022-08-24T08:18:46;23.50;86.40
25200;DHT22;33094;48.782;9.162;2022-08-24T08:21:12;22.20;81.90
25200;DHT22;33094;48.782;9.162;2022-08-24T08:23:56;27.70;79.40
25200;DHT22;33094;48.782;9.162;2022-08-24T08:26:41;28.00;77.70
25200;DHT22;33094;48.782;9.162;2022-08-24T08:29:07;27.90;77.50
25200;DHT22;33094;48.782;9.162;2022-08-24T08:31:35;28.40;77.10
25200;DHT22;33094;48.782;9.162;2022-08-24T08:34:00;29.30;75.70
25200;DHT22;33094;48.782;9.162;2022-08-24T08:36:26;29.50;75.30
25200;DHT22;33094;48.782;9.162;2022-08-24T08:38:52;29.10;76.60
25200;DHT22;33094;48.782;9.162;2022-08-24T08:44:02;28.50;73.50
25200;DHT22;33094;48.782;9.162;2022-08-24T08:51:25;26.80;71.40
25200;DHT22;33094;48.782;9.162;2022-08-24T08:54:05;30.00;70.90
25200;DHT22;33094;48.782;9.162;2022-08-24T09:01:46;28.70;72.70
25200;DHT22;33094;48.782;9.162;2022-08-24T09:22:15;31.00;68.20
25200;DHT22;33094;48.782;9.162;2022-08-24T09:29:58;30.70;67.10
25200;DHT22;33094;48.782;9.162;2022-08-24T09:32:47;31.70;65.30
25200;DHT22;33094;48.782;9.162;2022-08-24T09:35:21;32.80;64.30
25200;DHT22;33094;48.782;9.162;2022-08-24T09:37:57;32.20;64.40
25200;DHT22;33094;48.782;9.162;2022-08-24T09:40:49;32.30;64.80
25200;DHT22;33094;48.782;9.162;2022-08-24T09:51:06;32.30;63.40
25200;DHT22;33094;48.782;9.162;2022-08-24T09:58:52;32.20;62.70
25200;DHT22;33094;48.782;9.162;2022-08-24T10:01:26;32.20;63.70
25200;DHT22;33094;48.782;9.162;2022-08-24T10:04:02;32.90;62.70
25200;DHT22;33094;48.782;9.162;2022-08-24T10:09:35;32.50;63.10
25200;DHT22;33094;48.782;9.162;2022-08-24T10:12:06;32.30;62.60
25200;DHT22;33094;48.782;9.162;2022-08-24T10:17:49;33.60;60.90
25200;DHT22;33094;48.782;9.162;2022-08-24T10:20:22;32.60;61.50
25200;DHT22;33094;48.782;9.162;2022-08-24T10:26:00;33.00;62.40
25200;DHT22;33094;48.782;9.162;2022-08-24T10:28:46;32.90;62.60
25200;DHT22;33094;48.782;9.162;2022-08-24T10:31:17;32.40;63.10
25200;DHT22;33094;48.782;9.162;2022-08-24T10:33:48;32.50;62.30
25200;DHT22;33094;48.782;9.162;2022-08-24T10:36:19;32.90;62.00
25200;DHT22;33094;48.782;9.162;2022-08-24T10:39:36;32.70;61.40
25200;DHT22;33094;48.782;9.162;2022-08-24T10:52:39;33.40;61.40
25200;DHT22;33094;48.782;9.162;2022-08-24T10:55:13;33.40;62.20
25200;DHT22;33094;48.782;9.162;2022-08-24T11:00:15;32.70;61.90
25200;DHT22;33094;48.782;9.162;2022-08-24T11:02:44;31.90;63.70
25200;DHT22;33094;48.782;9.162;2022-08-24T11:05:11;31.50;65.80
25200;DHT22;33094;48.782;9.162;2022-08-24T11:07:46;33.10;63.70
25200;DHT22;33094;48.782;9.162;2022-08-24T11:10:23;33.10;61.30
25200;DHT22;33094;48.782;9.162;2022-08-24T11:12:49;33.60;61.30
25200;DHT22;33094;48.782;9.162;2022-08-24T11:15:24;34.10;61.20
25200;DHT22;33094;48.782;9.162;2022-08-24T11:17:59;33.20;61.80
25200;DHT22;33094;48.782;9.162;2022-08-24T11:20:29;32.30;63.20
25200;DHT22;33094;48.782;9.162;2022-08-24T11:22:57;33.20;62.20
25200;DHT22;33094;48.782;9.162;2022-08-24T11:25:25;34.30;60.90
25200;DHT22;33094;48.782;9.162;2022-08-24T11:27:51;34.20;60.30
25200;DHT22;33094;48.782;9.162;2022-08-24T11:30:23;33.80;60.60
25200;DHT22;33094;48.782;9.162;2022-08-24T11:35:20;34.30;60.10
25200;DHT22;33094;48.782;9.162;2022-08-24T11:37:47;34.20;59.80
25200;DHT22;33094;48.782;9.162;2022-08-24T11:40:14;35.00;59.70
25200;DHT22;33094;48.782;9.162;2022-08-24T11:45:27;34.70;58.80
25200;DHT22;33094;48.782;9.162;2022-08-24T11:48:03;34.00;59.30
25200;DHT22;33094;48.782;9.162;2022-08-24T11:50:42;34.50;58.70
25200;DHT22;33094;48.782;9.162;2022-08-24T11:56:37;34.70;57.50
25200;DHT22;33094;48.782;9.162;2022-08-24T12:11:22;33.40;58.40
25200;DHT22;33094;48.782;9.162;2022-08-24T12:13:52;34.40;57.70
25200;DHT22;33094;48.782;9.162;2022-08-24T12:16:28;34.50;57.10
25200;DHT22;33094;48.782;9.162;2022-08-24T12:21:25;34.30;57.90
25200;DHT22;33094;48.782;9.162;2022-08-24T12:23:53;33.00;57.50
25200;DHT22;33094;48.782;9.162;2022-08-24T12:26:24;34.10;57.80
25200;DHT22;33094;48.782;9.162;2022-08-24T12:28:51;34.10;57.70
25200;DHT22;33094;48.782;9.162;2022-08-24T12:31:20;34.40;57.40
25200;DHT22;33094;48.782;9.162;2022-08-24T12:33:48;34.30;58.10
25200;DHT22;33094;48.782;9.162;2022-08-24T12:36:24;34.30;57.90
25200;DHT22;33094;48.782;9.162;2022-08-24T12:45:11;33.60;57.70
25200;DHT22;33094;48.782;9.162;2022-08-24T12:48:20;32.90;57.80
25200;DHT22;33094;48.782;9.162;2022-08-24T12:50:12;32.50;58.60
25200;DHT22;33094;48.782;9.162;2022-08-24T13:00:19;32.60;59.20
25200;DHT22;33094;48.782;9.162;2022-08-24T13:02:53;33.50;57.80
25200;DHT22;33094;48.782;9.162;2022-08-24T13:05:19;34.00;57.10
25200;DHT22;33094;48.782;9.162;2022-08-24T13:07:45;33.70;57.10
25200;DHT22;33094;48.782;9.162;2022-08-24T13:10:14;32.80;58.00
25200;DHT22;33094;48.782;9.162;2022-08-24T13:17:47;33.20;58.20
25200;DHT22;33094;48.782;9.162;2022-08-24T13:20:14;31.30;60.30
25200;DHT22;33094;48.782;9.162;2022-08-24T13:22:46;30.80;60.00
25200;DHT22;33094;48.782;9.162;2022-08-24T13:25:23;30.90;60.00
25200;DHT22;33094;48.782;9.162;2022-08-24T13:28:00;30.60;60.40
25200;DHT22;33094;48.782;9.162;2022-08-24T13:30:28;30.60;60.90
25200;DHT22;33094;48.782;9.162;2022-08-24T13:33:06;30.60;60.30
25200;DHT22;33094;48.782;9.162;2022-08-24T13:35:35;30.50;60.40
25200;DHT22;33094;48.782;9.162;2022-08-24T13:40:46;30.50;60.40
25200;DHT22;33094;48.782;9.162;2022-08-24T13:43:16;30.60;61.10
25200;DHT22;33094;48.782;9.162;2022-08-24T13:45:51;30.60;60.60
25200;DHT22;33094;48.782;9.162;2022-08-24T13:48:38;30.50;61.30
25200;DHT22;33094;48.782;9.162;2022-08-24T13:56:21;30.60;61.60
25200;DHT22;33094;48.782;9.162;2022-08-24T13:58:52;30.50;62.40
25200;DHT22;33094;48.782;9.162;2022-08-24T14:06:47;30.20;63.30
25200;DHT22;33094;48.782;9.162;2022-08-24T14:14:15;30.20;63.60
25200;DHT22;33094;48.782;9.162;2022-08-24T14:19:42;30.20;64.40
25200;DHT22;33094;48.782;9.162;2022-08-24T14:22:15;30.50;63.90
25200;DHT22;33094;48.782;9.162;2022-08-24T14:24:47;30.00;64.30
25200;DHT22;33094;48.782;9.162;2022-08-24T14:32:38;29.90;66.00
25200;DHT22;33094;48.782;9.162;2022-08-24T14:35:13;29.80;66.60
25200;DHT22;33094;48.782;9.162;2022-08-24T14:37:50;29.80;66.80
25200;DHT22;33094;48.782;9.162;2022-08-24T14:43:17;29.60;66.80
25200;DHT22;33094;48.782;9.162;2022-08-24T14:48:12;29.60;67.10
25200;DHT22;33094;48.782;9.162;2022-08-24T14:50:57;29.70;67.00
25200;DHT22;33094;48.782;9.162;2022-08-24T14:56:09;29.80;68.00
25200;DHT22;33094;48.782;9.162;2022-08-24T15:11:30;29.80;69.10
25200;DHT22;33094;48.782;9.162;2022-08-24T15:14:03;29.60;69.40
25200;DHT22;33094;48.782;9.162;2022-08-24T15:16:50;29.40;69.90
25200;DHT22;33094;48.782;9.162;2022-08-24T15:21:47;29.40;69.70
25200;DHT22;33094;48.782;9.162;2022-08-24T15:29:20;29.00;71.10
25200;DHT22;33094;48.782;9.162;2022-08-24T15:34:30;29.20;71.10
25200;DHT22;33094;48.782;9.162;2022-08-24T15:37:00;29.20;71.10
25200;DHT22;33094;48.782;9.162;2022-08-24T15:39:26;29.30;71.10
25200;DHT22;33094;48.782;9.162;2022-08-24T15:41:52;29.40;71.00
25200;DHT22;33094;48.782;9.162;2022-08-24T15:44:22;29.20;72.20
25200;DHT22;33094;48.782;9.162;2022-08-24T15:46:49;29.40;71.90
25200;DHT22;33094;48.782;9.162;2022-08-24T15:49:44;29.30;72.30
25200;DHT22;33094;48.782;9.162;2022-08-24T15:52:05;29.10;72.60
25200;DHT22;33094;48.782;9.162;2022-08-24T15:54:35;29.00;73.60
25200;DHT22;33094;48.782;9.162;2022-08-24T15:57:03;29.10;73.10
25200;DHT22;33094;48.782;9.162;2022-08-24T16:07:31;29.10;73.40
25200;DHT22;33094;48.782;9.162;2022-08-24T16:10:07;29.00;74.10
25200;DHT22;33094;48.782;9.162;2022-08-24T16:12:33;28.90;73.90
25200;DHT22;33094;48.782;9.162;2022-08-24T16:15:18;28.70;74.20
25200;DHT22;33094;48.782;9.162;2022-08-24T16:17:47;28.70;74.30
25200;DHT22;33094;48.782;9.162;2022-08-24T16:20:32;28.70;74.20
25200;DHT22;33094;48.782;9.162;2022-08-24T16:23:09;28.70;74.60
25200;DHT22;33094;48.782;9.162;2022-08-24T16:25:42;28.70;74.20
25200;DHT22;33094;48.782;9.162;2022-08-24T16:28:10;28.70;74.10
25200;DHT22;33094;48.782;9.162;2022-08-24T16:30:44;28.70;74.30
25200;DHT22;33094;48.782;9.162;2022-08-24T16:33:33;28.50;75.30
25200;DHT22;33094;48.782;9.162;2022-08-24T16:35:56;28.50;75.10
25200;DHT22;33094;48.782;9.162;2022-08-24T16:38:23;28.40;75.40
25200;DHT22;33094;48.782;9.162;2022-08-24T16:40:49;28.40;75.60
25200;DHT22;33094;48.782;9.162;2022-08-24T16:43:14;28.40;76.30
25200;DHT22;33094;48.782;9.162;2022-08-24T16:45:40;28.40;75.70
25200;DHT22;33094;48.782;9.162;2022-08-24T16:48:05;28.40;75.60
25200;DHT22;33094;48.782;9.162;2022-08-24T16:50:31;28.40;75.70
25200;DHT22;33094;48.782;9.162;2022-08-24T16:52:57;28.30;75.30
25200;DHT22;33094;48.782;9.162;2022-08-24T16:55:22;28.20;75.20
25200;DHT22;33094;48.782;9.162;2022-08-24T16:57:48;28.20;75.10
25200;DHT22;33094;48.782;9.162;2022-08-24T17:00:15;28.20;75.30
25200;DHT22;33094;48.782;9.162;2022-08-24T17:02:42;28.20;76.10
25200;DHT22;33094;48.782;9.162;2022-08-24T17:05:08;28.10;76.20
25200;DHT22;33094;48.782;9.162;2022-08-24T17:07:33;28.00;76.20
25200;DHT22;33094;48.782;9.162;2022-08-24T17:09:59;27.90;76.90
25200;DHT22;33094;48.782;9.162;2022-08-24T17:12:26;27.90;77.20
25200;DHT22;33094;48.782;9.162;2022-08-24T17:14:51;27.80;77.20
25200;DHT22;33094;48.782;9.162;2022-08-24T17:17:18;27.80;77.20
25200;DHT22;33094;48.782;9.162;2022-08-24T17:19:50;27.70;77.10
25200;DHT22;33094;48.782;9.162;2022-08-24T17:22:18;27.70;77.50
25200;DHT22;33094;48.782;9.162;2022-08-24T17:24:43;27.60;77.30
25200;DHT22;33094;48.782;9.162;2022-08-24T17:27:09;27.50;77.50
25200;DHT22;33094;48.782;9.162;2022-08-24T17:29:35;27.50;77.70
25200;DHT22;33094;48.782;9.162;2022-08-24T17:32:00;27.50;78.30
25200;DHT22;33094;48.782;9.162;2022-08-24T17:34:26;27.50;77.90
25200;DHT22;33094;48.782;9.162;2022-08-24T17:36:52;29.20;79.90
25200;DHT22;33094;48.782;9.162;2022-08-24T17:39:19;27.40;79.00
25200;DHT22;33094;48.782;9.162;2022-08-24T17:41:48;27.30;78.60
25200;DHT22;33094;48.782;9.162;2022-08-24T17:44:16;27.10;79.20
25200;DHT22;33094;48.782;9.162;2022-08-24T17:46:48;27.10;79.20
25200;DHT22;33094;48.782;9.162;2022-08-24T17:49:14;27.00;79.20
25200;DHT22;33094;48.782;9.162;2022-08-24T17:51:40;27.00;80.20
25200;DHT22;33094;48.782;9.162;2022-08-24T17:54:06;26.90;79.90
25200;DHT22;33094;48.782;9.162;2022-08-24T17:56:31;26.90;80.50
25200;DHT22;33094;48.782;9.162;2022-08-24T17:59:09;27.00;80.60
25200;DHT22;33094;48.782;9.162;2022-08-24T18:01:47;26.90;80.20
25200;DHT22;33094;48.782;9.162;2022-08-24T18:04:14;26.90;80.30
25200;DHT22;33094;48.782;9.162;2022-08-24T18:06:39;26.70;80.70
25200;DHT22;33094;48.782;9.162;2022-08-24T18:09:06;26.60;81.10
25200;DHT22;33094;48.782;9.162;2022-08-24T18:11:32;26.60;81.50
25200;DHT22;33094;48.782;9.162;2022-08-24T18:13:58;26.60;81.50
25200;DHT22;33094;48.782;9.162;2022-08-24T18:16:25;26.70;81.50
25200;DHT22;33094;48.782;9.162;2022-08-24T18:18:52;26.50;81.50
25200;DHT22;33094;48.782;9.162;2022-08-24T18:21:18;26.40;81.70
25200;DHT22;33094;48.782;9.162;2022-08-24T18:23:49;26.40;82.10
25200;DHT22;33094;48.782;9.162;2022-08-24T18:26:18;26.20;82.50
25200;DHT22;33094;48.782;9.162;2022-08-24T18:28:44;26.10;82.70
25200;DHT22;33094;48.782;9.162;2022-08-24T18:31:10;26.10;83.30
25200;DHT22;33094;48.782;9.162;2022-08-24T18:33:36;26.20;83.10
25200;DHT22;33094;48.782;9.162;2022-08-24T18:36:02;26.10;83.00
25200;DHT22;33094;48.782;9.162;2022-08-24T18:38:28;26.00;83.80
25200;DHT22;33094;48.782;9.162;2022-08-24T18:40:53;25.90;83.90
25200;DHT22;33094;48.782;9.162;2022-08-24T18:43:19;25.90;84.60
25200;DHT22;33094;48.782;9.162;2022-08-24T18:45:46;25.80;84.20
25200;DHT22;33094;48.782;9.162;2022-08-24T18:48:11;25.70;85.00
25200;DHT22;33094;48.782;9.162;2022-08-24T18:50:37;25.70;84.70
25200;DHT22;33094;48.782;9.162;2022-08-24T18:53:02;25.60;84.90
25200;DHT22;33094;48.782;9.162;2022-08-24T18:55:28;25.50;85.90
25200;DHT22;33094;48.782;9.162;2022-08-24T18:57:54;25.40;85.80
25200;DHT22;33094;48.782;9.162;2022-08-24T19:00:20;25.30;85.90
25200;DHT22;33094;48.782;9.162;2022-08-24T19:02:45;25.20;86.30
25200;DHT22;33094;48.782;9.162;2022-08-24T19:05:13;25.30;86.60
25200;DHT22;33094;48.782;9.162;2022-08-24T19:07:41;25.20;86.60
25200;DHT22;33094;48.782;9.162;2022-08-24T19:10:07;25.20;87.20
25200;DHT22;33094;48.782;9.162;2022-08-24T19:12:36;25.20;87.20
25200;DHT22;33094;48.782;9.162;2022-08-24T19:15:02;25.10;87.50
25200;DHT22;33094;48.782;9.162;2022-08-24T19:17:28;25.10;87.50
25200;DHT22;33094;48.782;9.162;2022-08-24T19:19:53;25.10;87.70
25200;DHT22;33094;48.782;9.162;2022-08-24T19:22:19;25.00;88.00
25200;DHT22;33094;48.782;9.162;2022-08-24T19:24:45;25.10;88.10
25200;DHT22;33094;48.782;9.162;2022-08-24T19:27:11;26.30;89.70
25200;DHT22;33094;48.782;9.162;2022-08-24T19:29:36;25.00;89.00
25200;DHT22;33094;48.782;9.162;2022-08-24T19:32:03;24.90;89.30
25200;DHT22;33094;48.782;9.162;2022-08-24T19:34:29;25.00;89.30
25200;DHT22;33094;48.782;9.162;2022-08-24T19:36:54;24.90;89.30
25200;DHT22;33094;48.782;9.162;2022-08-24T19:39:20;24.90;89.50
25200;DHT22;33094;48.782;9.162;2022-08-24T19:41:46;24.80;89.80
25200;DHT22;33094;48.782;9.162;2022-08-24T19:44:12;24.90;89.60
25200;DHT22;33094;48.782;9.162;2022-08-24T19:46:56;24.80;89.70
25200;DHT22;33094;48.782;9.162;2022-08-24T19:49:24;24.80;90.00
25200;DHT22;33094;48.782;9.162;2022-08-24T19:51:50;24.60;90.10
25200;DHT22;33094;48.782;9.162;2022-08-24T19:54:15;24.60;90.20
25200;DHT22;33094;48.782;9.162;2022-08-24T19:56:41;24.60;90.20
25200;DHT22;33094;48.782;9.162;2022-08-24T19:59:19;25.50;90.50
25200;DHT22;33094;48.782;9.162;2022-08-24T20:01:48;24.60;90.30
25200;DHT22;33094;48.782;9.162;2022-08-24T20:04:13;24.50;90.40
25200;DHT22;33094;48.782;9.162;2022-08-24T20:06:39;24.50;90.30
25200;DHT22;33094;48.782;9.162;2022-08-24T20:09:05;24.50;90.40
25200;DHT22;33094;48.782;9.162;2022-08-24T20:11:31;25.80;91.00
25200;DHT22;33094;48.782;9.162;2022-08-24T20:13:57;24.40;90.60
25200;DHT22;33094;48.782;9.162;2022-08-24T20:16:23;24.40;90.60
25200;DHT22;33094;48.782;9.162;2022-08-24T20:18:50;24.30;90.90
25200;DHT22;33094;48.782;9.162;2022-08-24T20:21:16;24.30;90.80
25200;DHT22;33094;48.782;9.162;2022-08-24T20:23:42;24.30;90.70
25200;DHT22;33094;48.782;9.162;2022-08-24T20:26:08;24.30;90.80
25200;DHT22;33094;48.782;9.162;2022-08-24T20:28:42;24.30;90.80
25200;DHT22;33094;48.782;9.162;2022-08-24T20:31:10;24.20;91.00
25200;DHT22;33094;48.782;9.162;2022-08-24T20:33:36;24.20;91.00
25200;DHT22;33094;48.782;9.162;2022-08-24T20:36:02;24.10;91.10
25200;DHT22;33094;48.782;9.162;2022-08-24T20:38:27;24.10;91.10
25200;DHT22;33094;48.782;9.162;2022-08-24T20:40:53;24.10;91.10
25200;DHT22;33094;48.782;9.162;2022-08-24T20:43:19;24.00;91.20
25200;DHT22;33094;48.782;9.162;2022-08-24T20:45:44;24.00;91.20
25200;DHT22;33094;48.782;9.162;2022-08-24T20:48:10;24.00;91.20
25200;DHT22;33094;48.782;9.162;2022-08-24T20:50:37;23.90;91.40
25200;DHT22;33094;48.782;9.162;2022-08-24T20:53:03;23.80;91.40
25200;DHT22;33094;48.782;9.162;2022-08-24T20:55:28;23.80;91.50
25200;DHT22;33094;48.782;9.162;2022-08-24T20:57:57;23.80;91.40
25200;DHT22;33094;48.782;9.162;2022-08-24T21:00:27;23.80;91.40
25200;DHT22;33094;48.782;9.162;2022-08-24T21:02:53;23.70;91.40
25200;DHT22;33094;48.782;9.162;2022-08-24T21:05:19;23.70;91.50
25200;DHT22;33094;48.782;9.162;2022-08-24T21:07:45;23.60;91.50
25200;DHT22;33094;48.782;9.162;2022-08-24T21:10:22;23.70;91.50
25200;DHT22;33094;48.782;9.162;2022-08-24T21:12:48;23.70;91.40
25200;DHT22;33094;48.782;9.162;2022-08-24T21:15:14;23.60;91.40
25200;DHT22;33094;48.782;9.162;2022-08-24T21:17:40;23.60;91.50
25200;DHT22;33094;48.782;9.162;2022-08-24T21:20:07;24.00;91.70
25200;DHT22;33094;48.782;9.162;2022-08-24T21:22:33;23.50;91.60
25200;DHT22;33094;48.782;9.162;2022-08-24T21:25:02;23.40;91.70
25200;DHT22;33094;48.782;9.162;2022-08-24T21:27:28;23.50;91.50
25200;DHT22;33094;48.782;9.162;2022-08-24T21:29:53;23.40;91.70
25200;DHT22;33094;48.782;9.162;2022-08-24T21:32:19;23.30;91.80
25200;DHT22;33094;48.782;9.162;2022-08-24T21:35:03;23.30;91.80
25200;DHT22;33094;48.782;9.162;2022-08-24T21:37:29;23.40;91.70
25200;DHT22;33094;48.782;9.162;2022-08-24T21:39:55;23.30;91.80
25200;DHT22;33094;48.782;9.162;2022-08-24T21:42:20;23.30;91.80
25200;DHT22;33094;48.782;9.162;2022-08-24T21:44:46;23.20;92.10
25200;DHT22;33094;48.782;9.162;2022-08-24T21:47:11;23.20;92.00
25200;DHT22;33094;48.782;9.162;2022-08-24T21:49:37;23.20;92.10
25200;DHT22;33094;48.782;9.162;2022-08-24T21:52:02;25.40;92.80
25200;DHT22;33094;48.782;9.162;2022-08-24T21:54:28;23.00;92.20
25200;DHT22;33094;48.782;9.162;2022-08-24T21:56:54;23.00;92.40
25200;DHT22;33094;48.782;9.162;2022-08-24T21:59:19;22.90;92.50
25200;DHT22;33094;48.782;9.162;2022-08-24T22:01:45;22.80;92.70
25200;DHT22;33094;48.782;9.162;2022-08-24T22:04:10;22.80;92.60
25200;DHT22;33094;48.782;9.162;2022-08-24T22:06:37;22.80;92.60
25200;DHT22;33094;48.782;9.162;2022-08-24T22:09:03;22.70;92.70
25200;DHT22;33094;48.782;9.162;2022-08-24T22:11:29;22.80;92.70
25200;DHT22;33094;48.782;9.162;2022-08-24T22:13:56;22.70;92.80
25200;DHT22;33094;48.782;9.162;2022-08-24T22:16:21;19.20;91.90
25200;DHT22;33094;48.782;9.162;2022-08-24T22:18:47;22.70;92.70
25200;DHT22;33094;48.782;9.162;2022-08-24T22:21:18;24.80;93.50
25200;DHT22;33094;48.782;9.162;2022-08-24T22:23:44;22.50;93.00
25200;DHT22;33094;48.782;9.162;2022-08-24T22:26:10;22.60;93.10
25200;DHT22;33094;48.782;9.162;2022-08-24T22:28:36;22.50;93.20
25200;DHT22;33094;48.782;9.162;2022-08-24T22:31:02;22.60;93.10
25200;DHT22;33094;48.782;9.162;2022-08-24T22:33:28;22.40;93.20
25200;DHT22;33094;48.782;9.162;2022-08-24T22:35:54;22.50;93.20
25200;DHT22;33094;48.782;9.162;2022-08-24T22:38:19;22.50;93.20
25200;DHT22;33094;48.782;9.162;2022-08-24T22:40:45;22.50;93.10
25200;DHT22;33094;48.782;9.162;2022-08-24T22:43:11;22.50;93.20
25200;DHT22;33094;48.782;9.162;2022-08-24T22:45:37;22.50;93.30
25200;DHT22;33094;48.782;9.162;2022-08-24T22:48:02;22.60;93.10
25200;DHT22;33094;48.782;9.162;2022-08-24T22:50:28;22.60;93.10
25200;DHT22;33094;48.782;9.162;2022-08-24T22:52:56;22.50;93.20
25200;DHT22;33094;48.782;9.162;2022-08-24T22:55:22;22.40;93.40
25200;DHT22;33094;48.782;9.162;2022-08-24T22:57:48;22.80;94.00
25200;DHT22;33094;48.782;9.162;2022-08-24T23:00:13;22.40;93.40
25200;DHT22;33094;48.782;9.162;2022-08-24T23:02:39;22.50;93.30
25200;DHT22;33094;48.782;9.162;2022-08-24T23:05:05;22.40;93.20
25200;DHT22;33094;48.782;9.162;2022-08-24T23:07:30;22.40;93.30
25200;DHT22;33094;48.782;9.162;2022-08-24T23:09:56;22.50;93.40
25200;DHT22;33094;48.782;9.162;2022-08-24T23:12:22;22.30;93.60
25200;DHT22;33094;48.782;9.162;2022-08-24T23:14:50;22.30;93.70
25200;DHT22;33094;48.782;9.162;2022-08-24T23:17:16;22.20;93.80
25200;DHT22;33094;48.782;9.162;2022-08-24T23:19:41;22.10;93.90
25200;DHT22;33094;48.782;9.162;2022-08-24T23:22:29;22.20;93.90
25200;DHT22;33094;48.782;9.162;2022-08-24T23:24:55;22.00;94.00
25200;DHT22;33094;48.782;9.162;2022-08-24T23:27:21;22.00;94.00
25200;DHT22;33094;48.782;9.162;2022-08-24T23:29:47;22.00;94.00
25200;DHT22;33094;48.782;9.162;2022-08-24T23:32:13;22.00;94.00
25200;DHT22;33094;48.782;9.162;2022-08-24T23:34:40;21.90;94.10
25200;DHT22;33094;48.782;9.162;2022-08-24T23:37:05;21.90;94.10
25200;DHT22;33094;48.782;9.162;2022-08-24T23:39:31;25.40;95.00
25200;DHT22;33094;48.782;9.162;2022-08-24T23:41:56;21.90;94.20
25200;DHT22;33094;48.782;9.162;2022-08-24T23:44:25;22.00;94.20
25200;DHT22;33094;48.782;9.162;2022-08-24T23:46:52;21.80;94.30
25200;DHT22;33094;48.782;9.162;2022-08-24T23:49:18;21.80;94.40